createdAt,value
2023-04-22T00:00:05.758Z,57.65
2023-04-22T00:01:52.480Z,57.79
2023-04-22T00:03:27.147Z,58.17
2023-04-22T00:05:01.436Z,58.59
2023-04-22T00:06:23.376Z,58.21
2023-04-22T00:07:45.149Z,58.17
2023-04-22T00:09:14.461Z,58.03
2023-04-22T00:10:38.627Z,58.06
2023-04-22T00:12:00.046Z,57.92
2023-04-22T00:13:30.032Z,57.42
2023-04-22T00:15:03.529Z,57.08
2023-04-22T00:16:49.103Z,57.22
2023-04-22T00:18:34.377Z,57.00
2023-04-22T00:20:00.596Z,56.81
2023-04-22T00:21:34.729Z,57.12
2023-04-22T00:23:07.902Z,57.22
2023-04-22T00:24:43.453Z,57.16
2023-04-22T00:26:12.721Z,57.53
2023-04-22T00:27:45.870Z,57.78
2023-04-22T00:29:40.037Z,57.71
2023-04-22T00:31:33.789Z,57.64
2023-04-22T00:33:14.505Z,57.58
2023-04-22T00:34:59.453Z,57.79
2023-04-22T00:36:21.643Z,57.74
2023-04-22T00:38:06.651Z,57.24
2023-04-22T00:39:42.450Z,57.09
2023-04-22T00:41:19.125Z,57.10
2023-04-22T00:42:52.160Z,57.05
2023-04-22T00:44:15.129Z,56.78
2023-04-22T00:45:46.346Z,56.46
2023-04-22T00:47:27.500Z,56.25
2023-04-22T00:49:12.955Z,55.88
2023-04-22T00:50:57.612Z,55.95
2023-04-22T00:52:33.379Z,56.31
2023-04-22T00:54:04.657Z,55.98
2023-04-22T00:55:27.115Z,55.79
2023-04-22T00:57:07.891Z,55.85
2023-04-22T00:58:52.779Z,55.66
2023-04-22T01:00:29.883Z,56.31
2023-04-22T01:01:51.455Z,56.04
2023-04-22T01:03:25.437Z,56.73
2023-04-22T01:04:54.477Z,56.85
2023-04-22T01:06:30.476Z,56.67
2023-04-22T01:08:03.611Z,56.56
2023-04-22T01:09:48.962Z,57.18
2023-04-22T01:11:13.033Z,57.25
2023-04-22T01:12:45.980Z,57.33
2023-04-22T01:14:30.898Z,57.07
2023-04-22T01:16:06.315Z,57.80
2023-04-22T01:17:50.949Z,57.52
2023-04-22T01:19:15.278Z,57.49
2023-04-22T01:20:59.852Z,57.41
2023-04-22T01:22:45.294Z,57.37
2023-04-22T01:24:26.544Z,56.86
2023-04-22T01:25:55.959Z,57.41
2023-04-22T01:27:20.588Z,57.88
2023-04-22T01:29:00.972Z,58.89
2023-04-22T01:30:34.586Z,58.94
2023-04-22T01:32:19.964Z,59.00
2023-04-22T01:33:55.992Z,59.73
2023-04-22T01:35:41.862Z,60.36
2023-04-22T01:37:04.093Z,60.43
2023-04-22T01:38:46.231Z,59.88
2023-04-22T01:40:19.916Z,60.33
2023-04-22T01:42:04.481Z,60.68
2023-04-22T01:43:39.954Z,60.85
2023-04-22T01:45:33.963Z,61.11
2023-04-22T01:47:08.217Z,61.05
2023-04-22T01:49:02.515Z,60.49
2023-04-22T01:50:24.812Z,60.47
2023-04-22T01:52:09.933Z,61.20
2023-04-22T01:53:54.859Z,61.22
2023-04-22T01:55:43.085Z,61.29
2023-04-22T01:57:19.360Z,61.58
2023-04-22T01:58:54.892Z,61.93
2023-04-22T02:00:19.569Z,62.81
2023-04-22T02:02:03.567Z,62.56
2023-04-22T02:03:25.920Z,59.60
2023-04-22T02:04:51.537Z,55.52
2023-04-22T02:06:25.371Z,53.72
2023-04-22T02:08:10.166Z,53.43
2023-04-22T02:10:03.312Z,55.04
2023-04-22T02:11:48.070Z,56.82
2023-04-22T02:13:30.557Z,57.17
2023-04-22T02:15:15.636Z,58.12
2023-04-22T02:17:00.780Z,59.09
2023-04-22T02:18:34.172Z,59.72
2023-04-22T02:19:55.553Z,59.75
2023-04-22T02:21:40.867Z,60.78
2023-04-22T02:23:14.026Z,60.78
2023-04-22T02:24:45.312Z,60.45
2023-04-22T02:26:30.474Z,61.09
2023-04-22T02:28:03.791Z,61.48
2023-04-22T02:29:46.520Z,62.08
2023-04-22T02:31:16.261Z,62.31
2023-04-22T02:32:40.063Z,63.37
2023-04-22T02:34:16.347Z,63.40
2023-04-22T02:35:40.502Z,60.33
2023-04-22T02:37:21.720Z,56.17
2023-04-22T02:38:57.136Z,54.07
2023-04-22T02:40:39.966Z,54.09
2023-04-22T02:42:06.060Z,55.04
2023-04-22T02:43:51.394Z,56.15
2023-04-22T02:45:25.272Z,57.82
2023-04-22T02:47:09.950Z,58.54
2023-04-22T02:48:55.055Z,58.87
2023-04-22T02:50:49.586Z,59.32
2023-04-22T02:52:35.358Z,59.99
2023-04-22T02:54:10.607Z,60.18
2023-04-22T02:55:55.697Z,60.58
2023-04-22T02:57:44.868Z,60.88
2023-04-22T02:59:39.886Z,61.28
2023-04-22T03:01:27.873Z,61.79
2023-04-22T03:03:13.607Z,62.07
2023-04-22T03:04:49.308Z,62.27
2023-04-22T03:06:33.226Z,62.43
2023-04-22T03:08:08.746Z,63.16
2023-04-22T03:09:53.584Z,61.57
2023-04-22T03:11:40.816Z,56.53
2023-04-22T03:13:14.083Z,54.37
2023-04-22T03:14:56.349Z,54.36
2023-04-22T03:16:44.705Z,55.30
2023-04-22T03:18:23.550Z,56.26
2023-04-22T03:19:56.865Z,57.08
2023-04-22T03:21:30.928Z,57.71
2023-04-22T03:22:52.646Z,58.24
2023-04-22T03:24:38.180Z,58.64
2023-04-22T03:26:14.325Z,59.16
2023-04-22T03:27:38.007Z,59.72
2023-04-22T03:29:14.017Z,60.03
2023-04-22T03:30:47.434Z,60.25
2023-04-22T03:32:31.522Z,60.49
2023-04-22T03:34:20.970Z,60.54
2023-04-22T03:36:01.703Z,60.73
2023-04-22T03:37:52.569Z,60.44
2023-04-22T03:39:51.555Z,60.93
2023-04-22T03:41:28.239Z,60.88
2023-04-22T03:43:04.013Z,61.37
2023-04-22T03:44:41.007Z,61.71
2023-04-22T03:46:29.891Z,61.68
2023-04-22T03:48:29.589Z,61.92
2023-04-22T03:50:11.716Z,61.95
2023-04-22T03:51:33.509Z,62.16
2023-04-22T03:53:15.301Z,63.22
2023-04-22T03:55:00.351Z,62.77
2023-04-22T03:56:45.071Z,59.06
2023-04-22T03:58:26.458Z,54.56
2023-04-22T04:00:01.975Z,54.30
2023-04-22T04:01:47.629Z,55.03
2023-04-22T04:03:33.460Z,56.25
2023-04-22T04:05:19.368Z,57.19
2023-04-22T04:06:56.407Z,57.46
2023-04-22T04:08:41.945Z,58.03
2023-04-22T04:10:18.131Z,57.87
2023-04-22T04:12:01.607Z,58.25
2023-04-22T04:13:37.403Z,58.58
2023-04-22T04:15:52.756Z,59.06
2023-04-22T04:17:34.661Z,59.03
2023-04-22T04:19:07.861Z,58.96
2023-04-22T04:21:03.605Z,59.34
2023-04-22T04:22:58.535Z,59.11
2023-04-22T04:24:52.131Z,59.02
2023-04-22T04:26:42.341Z,58.95
2023-04-22T04:28:31.759Z,58.98
2023-04-22T04:30:16.726Z,59.01
2023-04-22T04:32:02.524Z,59.09
2023-04-22T04:33:38.076Z,59.44
2023-04-22T04:35:12.291Z,59.34
2023-04-22T04:36:58.083Z,59.40
2023-04-22T04:38:32.230Z,59.40
2023-04-22T04:40:16.989Z,59.32
2023-04-22T04:42:06.910Z,59.64
2023-04-22T04:43:54.743Z,59.73
2023-04-22T04:45:27.337Z,59.38
2023-04-22T04:47:10.126Z,59.40
2023-04-22T04:48:55.628Z,59.32
2023-04-22T04:50:36.850Z,59.27
2023-04-22T04:52:11.905Z,58.97
2023-04-22T04:53:45.465Z,58.91
2023-04-22T04:55:19.534Z,58.97
2023-04-22T04:57:04.434Z,59.01
2023-04-22T04:58:40.479Z,58.67
2023-04-22T05:00:30.462Z,58.33
2023-04-22T05:02:03.425Z,58.09
2023-04-22T05:03:25.958Z,57.89
2023-04-22T05:04:59.295Z,57.75
2023-04-22T05:06:26.212Z,57.84
2023-04-22T05:08:03.745Z,57.97
2023-04-22T05:09:46.722Z,58.08
2023-04-22T05:11:08.310Z,58.24
2023-04-22T05:12:34.791Z,58.31
2023-04-22T05:14:08.847Z,58.34
2023-04-22T05:15:55.676Z,58.40
2023-04-22T05:17:41.038Z,57.86
2023-04-22T05:19:05.277Z,57.18
2023-04-22T05:20:41.644Z,56.61
2023-04-22T05:22:18.145Z,55.93
2023-04-22T05:24:02.726Z,55.44
2023-04-22T05:25:27.425Z,55.42
2023-04-22T05:26:53.124Z,55.27
2023-04-22T05:28:24.964Z,55.38
2023-04-22T05:30:00.412Z,55.93
2023-04-22T05:31:38.486Z,55.82
2023-04-22T05:33:11.991Z,55.94
2023-04-22T05:34:54.026Z,55.75
2023-04-22T05:36:31.610Z,55.59
2023-04-22T05:38:16.196Z,55.61
2023-04-22T05:39:46.332Z,54.54
2023-04-22T05:41:18.439Z,54.63
2023-04-22T05:42:57.762Z,54.91
2023-04-22T05:44:40.064Z,54.49
2023-04-22T05:46:09.036Z,53.65
2023-04-22T05:47:50.104Z,52.17
2023-04-22T05:49:14.848Z,51.65
2023-04-22T05:51:03.057Z,51.10
2023-04-22T05:52:53.424Z,50.96
2023-04-22T05:54:39.041Z,50.27
2023-04-22T05:56:24.175Z,49.74
2023-04-22T05:57:53.409Z,49.85
2023-04-22T06:00:11.101Z,48.29
2023-04-22T06:02:00.228Z,48.14
2023-04-22T06:03:25.138Z,47.46
2023-04-22T06:05:10.490Z,47.27
2023-04-22T06:06:55.797Z,46.20
2023-04-22T06:08:20.310Z,46.50
2023-04-22T06:10:02.157Z,47.15
2023-04-22T06:11:28.842Z,47.29
2023-04-22T06:13:13.684Z,47.00
2023-04-22T06:14:37.651Z,48.05
2023-04-22T06:17:55.606Z,46.14
2023-04-22T06:19:24.787Z,46.02
2023-04-22T06:21:18.552Z,46.05
2023-04-22T06:22:54.360Z,44.71
2023-04-22T06:24:30.109Z,44.67
2023-04-22T06:26:03.157Z,44.89
2023-04-22T06:27:34.906Z,45.67
2023-04-22T06:29:08.339Z,46.22
2023-04-22T06:30:45.542Z,46.83
2023-04-22T06:32:19.414Z,44.59
2023-04-22T06:33:59.511Z,44.98
2023-04-22T06:35:44.814Z,45.66
2023-04-22T06:37:38.773Z,44.44
2023-04-22T06:41:45.507Z,42.99
2023-04-22T06:43:30.492Z,43.69
2023-04-22T06:45:15.538Z,43.48
2023-04-22T06:47:28.191Z,42.34
2023-04-22T06:49:17.549Z,42.70
2023-04-22T06:51:07.440Z,42.63
2023-04-22T06:52:29.755Z,43.49
2023-04-22T06:54:15.737Z,41.98
2023-04-22T06:55:55.943Z,41.82
2023-04-22T06:57:29.756Z,42.41
2023-04-22T06:59:00.821Z,42.74
2023-04-22T07:00:23.797Z,41.43
2023-04-22T07:02:08.691Z,41.72
2023-04-22T07:03:45.691Z,42.33
2023-04-22T07:05:40.437Z,41.52
2023-04-22T07:07:06.611Z,41.51
2023-04-22T07:08:35.867Z,41.38
2023-04-22T07:10:29.422Z,41.82
2023-04-22T07:12:29.344Z,41.72
2023-04-22T07:14:14.212Z,41.25
2023-04-22T07:15:59.182Z,40.82
2023-04-22T07:17:45.053Z,40.70
2023-04-22T07:19:38.643Z,39.96
2023-04-22T07:21:02.938Z,40.31
2023-04-22T07:22:43.337Z,39.98
2023-04-22T07:24:04.800Z,40.81
2023-04-22T07:25:39.859Z,41.86
2023-04-22T07:27:02.404Z,41.07
2023-04-22T07:28:55.356Z,39.76
2023-04-22T07:30:29.112Z,38.83
2023-04-22T07:32:09.860Z,38.77
2023-04-22T07:33:50.473Z,39.75
2023-04-22T07:35:44.233Z,39.24
2023-04-22T07:37:37.585Z,38.80
2023-04-22T07:39:31.092Z,39.22
2023-04-22T07:40:54.941Z,39.39
2023-04-22T07:42:48.398Z,38.49
2023-04-22T07:44:22.253Z,37.92
2023-04-22T07:45:53.197Z,38.24
2023-04-22T07:47:34.478Z,39.19
2023-04-22T07:49:15.591Z,39.03
2023-04-22T07:50:44.701Z,37.40
2023-04-22T07:52:38.910Z,38.52
2023-04-22T07:54:12.449Z,38.57
2023-04-22T07:55:57.409Z,37.75
2023-04-22T07:57:45.593Z,37.55
2023-04-22T07:59:30.683Z,38.68
2023-04-22T08:01:03.956Z,37.04
2023-04-22T08:02:56.158Z,37.39
2023-04-22T08:04:50.681Z,36.66
2023-04-22T08:06:26.596Z,37.88
2023-04-22T08:08:11.481Z,37.36
2023-04-22T08:09:56.482Z,38.47
2023-04-22T08:11:44.976Z,36.17
2023-04-22T08:13:27.021Z,36.39
2023-04-22T08:15:02.755Z,36.50
2023-04-22T08:16:48.139Z,36.03
2023-04-22T08:18:22.009Z,35.51
2023-04-22T08:19:57.471Z,34.54
2023-04-22T08:21:31.784Z,34.01
2023-04-22T08:22:57.212Z,35.11
2023-04-22T08:24:42.321Z,34.36
2023-04-22T08:26:03.972Z,35.36
2023-04-22T08:27:40.265Z,35.56
2023-04-22T08:29:14.025Z,35.41
2023-04-22T08:30:47.546Z,35.49
2023-04-22T08:32:28.502Z,34.88
2023-04-22T08:34:01.431Z,35.94
2023-04-22T08:35:46.541Z,36.11
2023-04-22T08:37:15.684Z,37.10
2023-04-22T08:38:50.104Z,35.20
2023-04-22T08:40:35.426Z,34.22
2023-04-22T08:42:10.460Z,35.14
2023-04-22T08:43:54.875Z,35.37
2023-04-22T08:45:40.825Z,36.26
2023-04-22T08:47:34.266Z,36.87
2023-04-22T08:49:18.966Z,37.27
2023-04-22T08:51:03.441Z,34.95
2023-04-22T08:52:48.516Z,33.52
2023-04-22T08:54:24.407Z,35.37
2023-04-22T08:56:09.293Z,33.98
2023-04-22T08:57:54.520Z,34.82
2023-04-22T08:59:19.134Z,33.59
2023-04-22T09:01:04.069Z,33.26
2023-04-22T09:02:58.673Z,34.09
2023-04-22T09:04:44.057Z,35.61
2023-04-22T09:06:27.603Z,36.21
2023-04-22T09:08:12.536Z,35.84
2023-04-22T09:09:57.365Z,35.97
2023-04-22T09:11:38.240Z,36.83
2023-04-22T09:13:13.921Z,36.46
2023-04-22T09:14:49.277Z,37.73
2023-04-22T09:16:15.785Z,37.68
2023-04-22T09:18:00.615Z,35.46
2023-04-22T09:19:34.343Z,33.98
2023-04-22T09:21:07.525Z,33.22
2023-04-22T09:22:37.441Z,34.78
2023-04-22T09:23:59.448Z,36.66
2023-04-22T09:25:33.296Z,36.05
2023-04-22T09:27:06.072Z,35.21
2023-04-22T09:28:30.336Z,36.06
2023-04-22T09:30:05.913Z,37.51
2023-04-22T09:31:41.322Z,35.86
2023-04-22T09:33:30.541Z,34.67
2023-04-22T09:34:54.631Z,33.77
2023-04-22T09:36:44.720Z,33.63
2023-04-22T09:38:29.947Z,36.72
2023-04-22T09:39:54.538Z,34.58
2023-04-22T09:41:27.938Z,35.45
2023-04-22T09:42:49.675Z,36.78
2023-04-22T09:44:25.635Z,36.05
2023-04-22T09:45:58.744Z,35.24
2023-04-22T09:47:26.542Z,34.62
2023-04-22T09:49:11.145Z,36.59
2023-04-22T09:50:40.452Z,34.42
2023-04-22T09:52:21.477Z,34.53
2023-04-22T09:54:06.170Z,34.96
2023-04-22T09:55:30.676Z,34.11
2023-04-22T09:57:19.208Z,36.48
2023-04-22T09:59:04.161Z,35.54
2023-04-22T10:00:57.626Z,37.25
2023-04-22T10:02:51.199Z,36.04
2023-04-22T10:04:15.911Z,36.54
2023-04-22T10:05:52.719Z,35.10
2023-04-22T10:07:31.254Z,35.55
2023-04-22T10:09:12.432Z,36.37
2023-04-22T10:10:48.604Z,36.25
2023-04-22T10:12:43.546Z,34.02
2023-04-22T10:14:10.378Z,33.92
2023-04-22T10:15:39.963Z,34.64
2023-04-22T10:17:18.570Z,34.93
2023-04-22T10:18:52.350Z,34.68
2023-04-22T10:20:38.374Z,37.87
2023-04-22T10:22:14.225Z,37.82
2023-04-22T10:23:49.598Z,34.59
2023-04-22T10:25:25.525Z,32.81
2023-04-22T10:27:10.748Z,34.11
2023-04-22T10:28:46.134Z,33.45
2023-04-22T10:30:22.650Z,36.40
2023-04-22T10:32:10.627Z,35.65
2023-04-22T10:33:35.075Z,34.79
2023-04-22T10:35:19.977Z,33.59
2023-04-22T10:37:05.097Z,36.13
2023-04-22T10:38:59.554Z,33.51
2023-04-22T10:40:44.650Z,33.24
2023-04-22T10:42:19.507Z,33.06
2023-04-22T10:44:04.472Z,35.16
2023-04-22T10:45:48.960Z,33.99
2023-04-22T10:47:10.520Z,33.75
2023-04-22T10:48:43.686Z,32.07
2023-04-22T10:50:28.502Z,33.11
2023-04-22T10:52:13.217Z,32.52
2023-04-22T10:53:58.552Z,33.31
2023-04-22T10:55:49.461Z,33.83
2023-04-22T10:57:37.594Z,35.01
2023-04-22T10:59:13.903Z,33.32
2023-04-22T11:00:59.820Z,33.50
2023-04-22T11:02:47.077Z,34.70
2023-04-22T11:04:41.560Z,34.90
2023-04-22T11:06:35.716Z,34.60
2023-04-22T11:08:20.330Z,35.38
2023-04-22T11:10:05.485Z,34.51
2023-04-22T11:11:50.160Z,33.92
2023-04-22T11:13:14.077Z,34.04
2023-04-22T11:14:56.211Z,31.43
2023-04-22T11:16:29.903Z,32.27
2023-04-22T11:18:15.135Z,32.20
2023-04-22T11:19:59.771Z,31.15
2023-04-22T11:21:41.991Z,30.69
2023-04-22T11:23:23.387Z,32.21
2023-04-22T11:25:08.222Z,32.67
2023-04-22T11:26:43.712Z,33.36
2023-04-22T11:28:37.545Z,33.28
2023-04-22T11:30:22.703Z,33.00
2023-04-22T11:31:57.899Z,33.69
2023-04-22T11:33:50.247Z,33.73
2023-04-22T11:35:31.330Z,32.59
2023-04-22T11:37:12.228Z,30.59
2023-04-22T11:38:45.297Z,29.04
2023-04-22T11:40:40.044Z,31.04
2023-04-22T11:42:25.542Z,30.65
2023-04-22T11:44:00.919Z,30.88
2023-04-22T11:45:36.071Z,31.37
2023-04-22T11:47:30.570Z,31.43
2023-04-22T11:49:03.281Z,31.89
2023-04-22T11:50:57.641Z,31.70
2023-04-22T11:52:43.557Z,30.85
2023-04-22T11:54:38.595Z,30.86
2023-04-22T11:56:14.275Z,30.25
2023-04-22T11:57:47.602Z,31.19
2023-04-22T11:59:23.748Z,31.20
2023-04-22T12:01:04.161Z,31.39
2023-04-22T12:02:58.850Z,30.02
2023-04-22T12:04:32.867Z,30.28
2023-04-22T12:06:17.232Z,29.77
2023-04-22T12:08:02.560Z,30.00
2023-04-22T12:09:55.777Z,29.27
2023-04-22T12:11:50.559Z,27.63
2023-04-22T12:13:33.565Z,26.38
2023-04-22T12:15:18.917Z,27.81
2023-04-22T12:17:03.791Z,27.68
2023-04-22T12:18:57.322Z,26.97
2023-04-22T12:20:52.561Z,27.45
2023-04-22T12:22:26.309Z,27.75
2023-04-22T12:23:50.269Z,27.58
2023-04-22T12:25:45.562Z,27.67
2023-04-22T12:27:11.858Z,26.71
2023-04-22T12:28:56.729Z,27.16
2023-04-22T12:30:40.988Z,26.85
2023-04-22T12:32:35.559Z,28.20
2023-04-22T12:34:09.021Z,27.40
2023-04-22T12:35:55.413Z,26.63
2023-04-22T12:37:51.230Z,28.13
2023-04-22T12:39:37.850Z,28.41
2023-04-22T12:41:23.002Z,28.86
2023-04-22T12:43:07.895Z,26.83
2023-04-22T12:45:01.102Z,27.62
2023-04-22T12:46:50.728Z,27.66
2023-04-22T12:48:45.604Z,26.37
2023-04-22T12:50:40.603Z,24.28
2023-04-22T12:52:35.588Z,26.69
2023-04-22T12:54:20.368Z,26.53
2023-04-22T12:56:05.432Z,24.34
2023-04-22T12:57:59.593Z,26.27
2023-04-22T12:59:54.580Z,26.32
2023-04-22T13:01:35.971Z,26.01
2023-04-22T13:03:09.348Z,26.80
2023-04-22T13:05:01.995Z,26.23
2023-04-22T13:06:46.569Z,26.52
2023-04-22T13:08:40.586Z,24.93
2023-04-22T13:10:35.698Z,25.42
2023-04-22T13:12:04.866Z,24.43
2023-04-22T13:13:58.519Z,24.26
2023-04-22T13:15:54.341Z,24.66
2023-04-22T13:17:39.726Z,24.37
2023-04-22T13:19:30.579Z,24.58
2023-04-22T13:21:20.502Z,22.71
2023-04-22T13:23:05.308Z,22.77
2023-04-22T13:24:59.584Z,25.02
2023-04-22T13:26:54.576Z,22.92
2023-04-22T13:28:44.107Z,23.87
2023-04-22T13:30:19.981Z,23.10
2023-04-22T13:32:04.912Z,23.25
2023-04-22T13:33:59.586Z,23.71
2023-04-22T13:35:54.606Z,23.07
2023-04-22T13:37:39.861Z,22.71
2023-04-22T13:39:34.602Z,24.16
2023-04-22T13:41:19.004Z,22.44
2023-04-22T13:43:04.391Z,21.96
2023-04-22T13:44:43.067Z,23.14
2023-04-22T13:46:37.589Z,22.32
2023-04-22T13:48:23.040Z,21.52
2023-04-22T13:50:07.960Z,22.41
2023-04-22T13:51:41.481Z,22.87
2023-04-22T13:53:15.758Z,23.37
2023-04-22T13:54:56.371Z,23.14
2023-04-22T13:56:29.845Z,23.43
2023-04-22T13:58:15.086Z,23.38
2023-04-22T13:59:59.596Z,23.47
2023-04-22T14:03:55.617Z,22.12
2023-04-22T14:07:54.650Z,22.28
2023-04-22T14:09:42.619Z,22.34
2023-04-22T14:11:16.288Z,22.55
2023-04-22T14:13:01.100Z,22.34
2023-04-22T14:14:35.030Z,22.53
2023-04-22T14:16:28.260Z,23.64
2023-04-22T14:18:12.999Z,23.13
2023-04-22T14:19:58.177Z,23.40
2023-04-22T14:21:31.955Z,23.98
2023-04-22T14:23:05.109Z,23.84
2023-04-22T14:24:52.130Z,23.23
2023-04-22T14:26:46.641Z,23.18
2023-04-22T14:28:40.272Z,22.30
2023-04-22T14:30:25.895Z,22.54
2023-04-22T14:31:59.455Z,22.01
2023-04-22T14:33:54.631Z,21.89
2023-04-22T14:35:42.166Z,22.20
2023-04-22T14:37:15.819Z,22.14
2023-04-22T14:38:49.190Z,21.84
2023-04-22T14:40:19.987Z,22.08
2023-04-22T14:42:00.154Z,21.67
2023-04-22T14:43:36.032Z,22.00
2023-04-22T14:45:11.721Z,21.66
2023-04-22T14:46:45.305Z,22.20
2023-04-22T14:48:38.925Z,22.15
2023-04-22T14:50:20.248Z,21.87
2023-04-22T14:52:05.073Z,21.09
2023-04-22T14:53:50.015Z,21.26
2023-04-22T14:55:41.404Z,21.49
2023-04-22T14:57:26.464Z,22.50
2023-04-22T14:59:06.661Z,22.34
2023-04-22T15:00:40.263Z,23.18
2023-04-22T15:02:15.500Z,22.04
2023-04-22T15:03:56.026Z,22.94
2023-04-22T15:05:42.229Z,22.05
2023-04-22T15:07:15.999Z,22.66
2023-04-22T15:09:00.354Z,21.93
2023-04-22T15:10:37.230Z,21.34
2023-04-22T15:12:10.873Z,20.65
2023-04-22T15:13:44.473Z,19.70
2023-04-22T15:15:17.829Z,19.87
2023-04-22T15:16:44.355Z,21.65
2023-04-22T15:18:29.580Z,21.52
2023-04-22T15:20:07.205Z,21.23
2023-04-22T15:22:00.952Z,21.09
2023-04-22T15:23:46.507Z,21.68
2023-04-22T15:25:33.293Z,21.43
2023-04-22T15:27:25.388Z,20.66
2023-04-22T15:28:58.730Z,20.59
2023-04-22T15:30:53.701Z,20.80
2023-04-22T15:32:39.537Z,22.07
2023-04-22T15:34:34.643Z,21.02
2023-04-22T15:36:19.355Z,20.84
2023-04-22T15:38:04.686Z,21.19
2023-04-22T15:39:58.034Z,20.51
2023-04-22T15:41:48.359Z,20.46
2023-04-22T15:43:35.091Z,20.28
2023-04-22T15:45:08.310Z,20.55
2023-04-22T15:46:53.895Z,20.66
2023-04-22T15:48:23.279Z,19.76
2023-04-22T15:49:58.442Z,19.81
2023-04-22T15:51:32.571Z,20.23
2023-04-22T15:53:05.661Z,19.50
2023-04-22T15:54:50.656Z,20.11
2023-04-22T15:56:39.219Z,20.60
2023-04-22T15:58:24.597Z,20.16
2023-04-22T16:00:10.177Z,20.47
2023-04-22T16:01:46.151Z,20.43
2023-04-22T16:03:36.670Z,20.26
2023-04-22T16:05:30.097Z,20.45
2023-04-22T16:07:15.085Z,19.92
2023-04-22T16:08:55.835Z,19.96
2023-04-22T16:10:29.468Z,19.68
2023-04-22T16:12:02.403Z,19.72
2023-04-22T16:13:46.795Z,19.58
2023-04-22T16:15:41.646Z,19.46
2023-04-22T16:17:27.336Z,19.88
2023-04-22T16:19:00.608Z,19.61
2023-04-22T16:20:30.142Z,19.91
2023-04-22T16:22:05.597Z,20.68
2023-04-22T16:23:50.350Z,21.51
2023-04-22T16:25:31.446Z,21.23
2023-04-22T16:27:24.236Z,21.49
2023-04-22T16:29:09.052Z,22.13
2023-04-22T16:33:03.774Z,23.00
2023-04-22T16:34:35.818Z,23.20
2023-04-22T16:36:20.618Z,23.75
2023-04-22T16:37:54.220Z,24.50
2023-04-22T16:39:30.131Z,24.89
2023-04-22T16:41:15.010Z,24.89
2023-04-22T16:43:00.541Z,25.55
2023-04-22T16:44:55.668Z,25.83
2023-04-22T16:46:47.221Z,26.02
2023-04-22T16:48:40.996Z,26.86
2023-04-22T16:50:26.403Z,26.36
2023-04-22T16:52:06.953Z,27.06
2023-04-22T16:54:01.672Z,27.31
2023-04-22T16:57:57.916Z,28.65
2023-04-22T16:59:46.254Z,29.05
2023-04-22T17:01:31.306Z,28.90
2023-04-22T17:03:07.597Z,29.73
2023-04-22T17:04:41.527Z,30.25
2023-04-22T17:06:15.301Z,30.49
2023-04-22T17:07:48.425Z,30.28
2023-04-22T17:09:15.449Z,30.86
2023-04-22T17:10:53.203Z,31.01
2023-04-22T17:12:35.351Z,32.21
2023-04-22T17:14:29.671Z,32.20
2023-04-22T17:16:09.895Z,32.76
2023-04-22T17:17:58.042Z,32.60
2023-04-22T17:19:44.527Z,33.51
2023-04-22T17:21:29.382Z,33.70
2023-04-22T17:23:22.906Z,34.42
2023-04-22T17:24:49.141Z,34.46
2023-04-22T17:26:28.974Z,35.13
2023-04-22T17:28:13.999Z,34.87
2023-04-22T17:29:55.829Z,35.69
2023-04-22T17:31:50.787Z,35.59
2023-04-22T17:33:26.909Z,36.32
2023-04-22T17:35:07.940Z,36.54
2023-04-22T17:37:02.694Z,37.21
2023-04-22T17:38:45.664Z,37.40
2023-04-22T17:40:26.412Z,37.59
2023-04-22T17:41:59.713Z,37.89
2023-04-22T17:43:51.221Z,38.39
2023-04-22T17:45:27.278Z,38.98
2023-04-22T17:47:12.265Z,39.29
2023-04-22T17:48:55.692Z,39.47
2023-04-22T17:50:25.569Z,39.88
2023-04-22T17:52:05.960Z,40.72
2023-04-22T17:53:41.769Z,41.22
2023-04-22T17:55:17.706Z,41.85
2023-04-22T17:56:51.199Z,42.14
2023-04-22T17:58:35.567Z,43.17
2023-04-22T18:00:20.669Z,42.75
2023-04-22T18:01:54.321Z,42.85
2023-04-22T18:03:28.276Z,42.91
2023-04-22T18:05:01.712Z,42.97
2023-04-22T18:06:35.584Z,43.04
2023-04-22T18:08:25.700Z,43.68
2023-04-22T18:09:49.582Z,44.00
2023-04-22T18:11:25.787Z,44.28
2023-04-22T18:13:10.413Z,44.47
2023-04-22T18:14:51.395Z,44.93
2023-04-22T18:16:38.973Z,44.83
2023-04-22T18:18:23.682Z,45.45
2023-04-22T18:20:09.769Z,45.65
2023-04-22T18:21:59.499Z,45.72
2023-04-22T18:23:45.700Z,45.90
2023-04-22T18:25:19.256Z,46.30
2023-04-22T18:27:01.701Z,46.59
2023-04-22T18:28:55.313Z,46.94
2023-04-22T18:30:49.679Z,47.02
2023-04-22T18:32:35.002Z,47.02
2023-04-22T18:34:15.695Z,46.91
2023-04-22T18:36:00.828Z,47.34
2023-04-22T18:37:36.458Z,47.41
2023-04-22T18:39:05.417Z,47.49
2023-04-22T18:40:49.229Z,47.65
2023-04-22T18:42:10.782Z,48.23
2023-04-22T18:43:51.618Z,48.21
2023-04-22T18:45:16.780Z,48.04
2023-04-22T18:46:52.230Z,48.46
2023-04-22T18:48:45.836Z,48.25
2023-04-22T18:50:09.869Z,48.22
2023-04-22T18:51:55.978Z,48.37
2023-04-22T18:53:42.577Z,48.55
2023-04-22T18:55:28.270Z,48.81
2023-04-22T18:57:13.939Z,48.59
2023-04-22T18:58:45.035Z,48.68
2023-04-22T19:00:26.875Z,48.71
2023-04-22T19:02:02.070Z,48.84
2023-04-22T19:03:38.205Z,48.87
2023-04-22T19:05:24.200Z,49.20
2023-04-22T19:07:09.565Z,49.67
2023-04-22T19:08:54.934Z,49.72
2023-04-22T19:10:40.079Z,49.66
2023-04-22T19:12:26.314Z,49.72
2023-04-22T19:13:55.161Z,49.81
2023-04-22T19:15:29.214Z,49.81
2023-04-22T19:17:02.676Z,49.82
2023-04-22T19:18:24.768Z,49.77
2023-04-22T19:19:53.672Z,49.92
2023-04-22T19:21:48.724Z,49.74
2023-04-22T19:23:33.562Z,49.71
2023-04-22T19:25:18.407Z,49.99
2023-04-22T19:27:03.762Z,50.04
2023-04-22T19:28:56.952Z,49.92
2023-04-22T19:30:31.752Z,50.10
2023-04-22T19:31:58.827Z,49.83
2023-04-22T19:33:40.162Z,49.87
2023-04-22T19:35:15.656Z,50.22
2023-04-22T19:36:50.341Z,50.07
2023-04-22T19:38:24.247Z,50.24
2023-04-22T19:39:57.587Z,50.21
2023-04-22T19:41:33.502Z,50.14
2023-04-22T19:43:04.214Z,50.47
2023-04-22T19:44:49.466Z,50.43
2023-04-22T19:46:21.302Z,50.52
2023-04-22T19:47:54.254Z,50.42
2023-04-22T19:49:43.765Z,50.38
2023-04-22T19:51:17.613Z,50.39
2023-04-22T19:52:51.055Z,50.49
2023-04-22T19:54:45.919Z,50.41
2023-04-22T19:56:21.127Z,50.45
2023-04-22T19:58:05.967Z,50.56
2023-04-22T20:01:46.710Z,50.75
2023-04-22T20:03:26.316Z,50.94
2023-04-22T20:05:17.433Z,51.38
2023-04-22T20:07:02.833Z,51.23
2023-04-22T20:08:41.770Z,51.38
2023-04-22T20:10:29.025Z,51.59
2023-04-22T20:12:02.937Z,51.94
2023-04-22T20:13:39.678Z,52.11
2023-04-22T20:15:21.614Z,52.24
2023-04-22T20:16:47.685Z,52.14
2023-04-22T20:18:12.176Z,52.44
2023-04-22T20:19:56.887Z,52.31
2023-04-22T20:21:28.944Z,52.57
2023-04-22T20:23:22.077Z,52.48
2023-04-22T20:24:53.540Z,52.56
2023-04-22T20:26:17.482Z,52.31
2023-04-22T20:27:48.685Z,52.44
2023-04-22T20:29:12.717Z,52.52
2023-04-22T20:30:46.654Z,52.51
2023-04-22T20:32:11.379Z,52.67
2023-04-22T20:33:47.427Z,52.52
2023-04-22T20:35:23.297Z,52.66
2023-04-22T20:36:56.319Z,52.89
2023-04-22T20:38:26.552Z,52.66
2023-04-22T20:40:04.294Z,52.50
2023-04-22T20:41:36.008Z,52.57
2023-04-22T20:43:29.456Z,52.48
2023-04-22T20:45:05.244Z,52.60
2023-04-22T20:46:40.098Z,52.51
2023-04-22T20:48:33.412Z,52.66
2023-04-22T20:50:08.057Z,52.72
2023-04-22T20:51:41.770Z,52.70
2023-04-22T20:53:25.297Z,52.89
2023-04-22T20:55:10.442Z,52.96
2023-04-22T20:56:55.249Z,53.28
2023-04-22T20:58:28.835Z,53.28
2023-04-22T20:59:55.422Z,52.90
2023-04-22T21:01:30.493Z,52.82
2023-04-22T21:02:59.640Z,52.96
2023-04-22T21:04:26.438Z,52.87
2023-04-22T21:05:48.133Z,53.05
2023-04-22T21:07:41.775Z,52.99
2023-04-22T21:09:22.801Z,53.02
2023-04-22T21:10:59.426Z,53.25
2023-04-22T21:12:44.970Z,53.03
2023-04-22T21:14:39.766Z,52.78
2023-04-22T21:16:29.083Z,53.12
2023-04-22T21:18:23.561Z,52.90
2023-04-22T21:20:17.313Z,52.91
2023-04-22T21:22:02.337Z,52.91
2023-04-22T21:23:36.304Z,52.37
2023-04-22T21:25:21.226Z,52.06
2023-04-22T21:27:10.790Z,52.42
2023-04-22T21:28:45.501Z,52.43
2023-04-22T21:30:32.311Z,52.58
2023-04-22T21:32:09.431Z,52.46
2023-04-22T21:33:46.226Z,52.60
2023-04-22T21:35:33.692Z,52.31
2023-04-22T21:37:18.926Z,52.16
2023-04-22T21:38:42.889Z,51.93
2023-04-22T21:40:30.023Z,52.17
2023-04-22T21:42:14.944Z,51.91
2023-04-22T21:43:55.798Z,52.17
2023-04-22T21:45:40.856Z,52.10
2023-04-22T21:47:16.619Z,52.31